Bellingham, WA (98225)

2:19 AM PST on February 11, 2016 (GMT -0800)
Columbia-Eldridge Marimba Palace | | Change Station
CLOSE
Current Station
Personal Weather Station
Location: Bellingham, WA
Elevation: 97 ft
Nearby Weather Stations

Elev 97 ft 48.76 °N, 122.50 °W | Updated 1 second ago

Fog
Fog
41.2 °F
Feels Like 41 °F
N
2.9
Wind Variable Wind from NNE
Gusts 3.4 mph

Today
High -- | Low -- °F
--% Chance of Precip.
Yesterday
High -- | Low -- °F
Precip. -- in
Pressure 30.30 in
Visibility 0.5 miles
Clouds
Windchill 41 °F
Dew Point 39 °F
Humidity 91%
Rainfall 0.00 in
Snow Depth Not available.
7:25 AM 5:23 PM
Waxing Crescent, 11% visible
METAR KBLI 110953Z AUTO 00000KT 1/2SM R16/1800V2800FT FG VV003 04/03 A3028 RMK AO2 SLP261 T00390033
Pressure 30.30 in
Visibility 0.5 miles
Clouds
Windchill 41 °F
Dew Point 39 °F
Humidity 91%
Rainfall 0.00 in
Snow Depth Not available.
7:25 AM 5:23 PM
Waxing Crescent, 11% visible
METAR KBLI 110953Z AUTO 00000KT 1/2SM R16/1800V2800FT FG VV003 04/03 A3028 RMK AO2 SLP261 T00390033

10-Day Weather Forecast

Almanac

Astronomy

Feb. 11, 2016 Rise Set
Actual Time
Civil Twilight
Nautical Twilight
Astronomical Twilight
Moon
Length of Visible Light
Length of Day
Tomorrow will be .
, % of the Moon is Illuminated

Today's Extremes

State Highs State Lows

Community

WunderPhotos

Upload Photos

1,892,030 photos uploaded!

WunderBlog® & News

Nearby

Air Quality

  Air Quality AQ Index Pollutant
Not available.

Snow Depth

Station Depth Elevation

Earthquake Activity

City Distance Mag. Time & Date
Minimum magnitude displayed is 2.5.

Coastal Water Temperatures

Place Temperature

Stations

Nearby Weather Stations

Station Location Temp. Windchill Dew Point Humidity Wind Precip. Elev Updated Type
                   

Watches & Warnings

There are currently no watches in effect.